Time;durP1;ratioP1;P1;durP2;ratioP2;P2;SDS_P1;SDS_P2;PMS_P1;PMS_P2;Temp;Humidity;BMP_temperature;BMP_pressure;BME280_temperature;BME280_humidity;BME280_pressure;Samples;Min_cycle;Max_cycle;Signal;HPM_P1;HPM_P2
2022/08/19 00:01:49;;;;;;;9.82;5.57;;;15.80;99.90;;;;;;5035144;28;20048;-63
2022/08/19 00:04:18;;;;;;;8.35;5.30;;;15.90;99.90;;;;;;5017432;28;20045;-63
2022/08/19 00:06:45;;;;;;;8.52;6.18;;;15.80;99.90;;;;;;5017403;28;20038;-63
2022/08/19 00:09:14;;;;;;;8.50;6.07;;;15.60;99.90;;;;;;5034932;28;20593;-63
2022/08/19 00:11:40;;;;;;;12.00;5.15;;;15.80;99.90;;;;;;5017358;28;20404;-63
2022/08/19 00:14:09;;;;;;;12.43;5.05;;;15.80;99.90;;;;;;5034958;28;20515;-63
2022/08/19 00:16:36;;;;;;;8.35;4.68;;;15.60;99.90;;;;;;5035021;28;20084;-63
2022/08/19 00:19:03;;;;;;;5.30;4.57;;;15.90;99.90;;;;;;5017227;28;20450;-63
2022/08/19 00:21:29;;;;;;;7.63;4.55;;;15.70;99.90;;;;;;5034741;28;20087;-63
2022/08/19 00:23:57;;;;;;;6.53;3.90;;;15.80;99.90;;;;;;5034497;28;20064;-64
2022/08/19 00:26:22;;;;;;;6.22;4.80;;;15.90;99.90;;;;;;5034828;28;20029;-63
2022/08/19 00:28:48;;;;;;;6.30;4.15;;;15.90;99.90;;;;;;5017163;28;20099;-63
2022/08/19 00:31:14;;;;;;;9.57;4.72;;;15.70;99.90;;;;;;5034471;28;20499;-64
2022/08/19 00:33:41;;;;;;;6.75;4.90;;;15.70;99.90;;;;;;5017040;28;20116;-63
2022/08/19 00:36:09;;;;;;;5.22;4.65;;;15.30;99.90;;;;;;5016668;28;20555;-63
2022/08/19 00:38:36;;;;;;;5.10;4.22;;;15.20;99.90;;;;;;5034498;28;20084;-63
2022/08/19 00:41:01;;;;;;;5.75;4.45;;;15.20;99.90;;;;;;5016495;28;20049;-63
2022/08/19 00:43:27;;;;;;;8.15;4.15;;;15.40;99.90;;;;;;5016569;28;20049;-63
2022/08/19 00:45:54;;;;;;;4.25;3.10;;;15.30;99.90;;;;;;5016740;28;20041;-63
2022/08/19 00:48:20;;;;;;;3.25;2.58;;;15.40;99.90;;;;;;5034142;28;20593;-63
2022/08/19 00:50:48;;;;;;;5.07;2.97;;;15.20;99.90;;;;;;5016525;28;20037;-64
2022/08/19 00:53:18;;;;;;;3.25;2.50;;;15.20;99.90;;;;;;5034026;28;20411;-64
2022/08/19 00:55:47;;;;;;;3.67;3.10;;;15.30;99.90;;;;;;5034307;28;20127;-64
2022/08/19 00:58:17;;;;;;;3.00;2.50;;;15.10;99.90;;;;;;5016320;28;20045;-63
2022/08/19 01:00:43;;;;;;;3.08;2.40;;;15.00;99.90;;;;;;5016622;28;20526;-63
2022/08/19 01:03:12;;;;;;;2.28;2.03;;;15.00;99.90;;;;;;5016159;28;20045;-63
2022/08/19 01:05:40;;;;;;;2.20;1.50;;;15.00;99.90;;;;;;5016120;28;20140;-63
2022/08/19 01:08:06;;;;;;;2.15;1.45;;;14.90;99.90;;;;;;5016040;28;20045;-63
2022/08/19 01:10:36;;;;;;;2.42;1.80;;;14.70;99.90;;;;;;5016312;28;20069;-63
2022/08/19 01:13:03;;;;;;;3.53;2.55;;;14.90;99.90;;;;;;5034184;28;20048;-63
2022/08/19 01:15:33;;;;;;;4.15;3.17;;;15.00;99.90;;;;;;5016157;28;20045;-63
2022/08/19 01:18:04;;;;;;;24.33;4.40;;;15.00;99.90;;;;;;5015883;28;20084;-64
2022/08/19 01:20:30;;;;;;;8.32;2.80;;;15.00;99.90;;;;;;5016094;28;20193;-63
2022/08/19 01:22:58;;;;;;;9.02;2.72;;;14.90;99.90;;;;;;5033574;28;20546;-63
2022/08/19 01:25:38;;;;;;;7.95;3.05;;;14.80;99.90;;;;;;5015957;28;20124;-63
2022/08/19 01:28:04;;;;;;;3.08;2.75;;;14.80;99.90;;;;;;5033740;28;20034;-63
2022/08/19 01:30:33;;;;;;;2.78;2.10;;;14.60;99.90;;;;;;5015812;28;20095;-63
2022/08/19 01:33:00;;;;;;;4.65;2.80;;;14.70;99.90;;;;;;5015542;28;20087;-64
2022/08/19 01:35:29;;;;;;;11.60;4.28;;;14.80;99.90;;;;;;5033742;28;20121;-63
2022/08/19 01:38:07;;;;;;;8.27;4.13;;;14.70;99.90;;;;;;5015694;28;20045;-63
2022/08/19 01:40:34;;;;;;;5.13;3.10;;;14.70;99.90;;;;;;5033521;28;20107;-63
2022/08/19 01:43:01;;;;;;;2.92;2.47;;;14.80;99.90;;;;;;5032982;28;20411;-64
2022/08/19 01:45:29;;;;;;;4.32;3.50;;;14.70;99.90;;;;;;5033416;28;20113;-63
2022/08/19 01:47:55;;;;;;;7.50;4.15;;;14.60;99.90;;;;;;5015350;28;20392;-63
2022/08/19 01:50:21;;;;;;;7.25;5.10;;;14.60;99.90;;;;;;5033022;28;20045;-63
2022/08/19 01:52:46;;;;;;;7.45;4.57;;;14.70;99.90;;;;;;5033255;28;20037;-63
2022/08/19 01:55:15;;;;;;;7.30;4.90;;;14.80;99.90;;;;;;5033168;28;20056;-64
2022/08/19 01:57:44;;;;;;;9.88;6.00;;;14.70;99.90;;;;;;5032827;28;20045;-63
2022/08/19 02:00:14;;;;;;;15.75;7.75;;;14.80;99.90;;;;;;5014724;28;20048;-63
2022/08/19 02:02:40;;;;;;;13.73;8.68;;;14.70;99.90;;;;;;5015225;28;20491;-63
2022/08/19 02:05:08;;;;;;;13.48;8.60;;;14.80;99.90;;;;;;5015127;28;20050;-63
2022/08/19 02:07:35;;;;;;;12.60;8.77;;;14.90;99.90;;;;;;5033238;28;20095;-63
2022/08/19 02:10:05;;;;;;;15.07;10.25;;;14.90;99.90;;;;;;5015136;28;20044;-63
2022/08/19 02:12:31;;;;;;;15.82;9.85;;;15.00;99.90;;;;;;5019019;28;20037;-63
2022/08/19 02:14:56;;;;;;;15.32;10.32;;;15.10;99.90;;;;;;5015006;28;20044;-63
2022/08/19 02:17:22;;;;;;;12.77;8.70;;;15.10;99.90;;;;;;5015241;28;20037;-63
2022/08/19 02:19:48;;;;;;;12.77;9.30;;;15.00;99.90;;;;;;5032772;28;20091;-63
2022/08/19 02:22:14;;;;;;;13.05;9.63;;;14.90;99.90;;;;;;5032866;28;20046;-63
2022/08/19 02:24:40;;;;;;;16.38;10.38;;;15.00;99.90;;;;;;5032781;28;20041;-63
2022/08/19 02:27:06;;;;;;;15.20;9.05;;;14.90;99.90;;;;;;5032398;28;20041;-63
2022/08/19 02:29:31;;;;;;;15.90;9.80;;;15.00;99.90;;;;;;5032413;28;20533;-63
2022/08/19 02:31:57;;;;;;;18.10;10.68;;;15.00;99.90;;;;;;5032577;28;20033;-63
2022/08/19 02:34:24;;;;;;;14.95;9.57;;;14.90;99.90;;;;;;5032472;28;20045;-63
2022/08/19 02:36:51;;;;;;;16.52;10.77;;;14.90;99.90;;;;;;5014665;28;20056;-63
2022/08/19 02:39:17;;;;;;;13.48;9.98;;;14.90;99.90;;;;;;5032426;28;20091;-63
2022/08/19 02:41:42;;;;;;;19.60;10.63;;;14.90;99.90;;;;;;5031943;28;20091;-63
2022/08/19 02:44:08;;;;;;;11.40;9.50;;;15.00;99.90;;;;;;5032337;28;20088;-65
2022/08/19 02:46:36;;;;;;;11.23;8.55;;;15.10;99.90;;;;;;5013222;28;20042;-63
2022/08/19 02:49:05;;;;;;;11.93;8.40;;;15.00;99.90;;;;;;5032210;28;20040;-63
2022/08/19 02:51:34;;;;;;;11.98;8.40;;;14.80;99.90;;;;;;5018378;28;20124;-63
2022/08/19 02:54:00;;;;;;;13.68;8.75;;;14.90;99.90;;;;;;5014433;28;20038;-63
2022/08/19 02:56:27;;;;;;;12.43;8.52;;;14.90;99.90;;;;;;5031875;28;20468;-63
2022/08/19 02:58:54;;;;;;;10.20;7.80;;;14.80;99.90;;;;;;5014347;28;20045;-63
2022/08/19 03:01:31;;;;;;;11.40;7.45;;;14.70;99.90;;;;;;5032321;28;20045;-63
2022/08/19 03:04:00;;;;;;;12.07;7.35;;;14.60;99.90;;;;;;5014117;28;20522;-63
2022/08/19 03:06:26;;;;;;;12.65;6.65;;;14.70;99.90;;;;;;5014302;28;20041;-63
2022/08/19 03:08:52;;;;;;;116.75;7.43;;;14.70;99.90;;;;;;5013974;28;20045;-63
2022/08/19 03:11:23;;;;;;;6.80;5.38;;;14.60;99.90;;;;;;5034100;28;20041;-63
2022/08/19 03:13:50;;;;;;;6.20;5.00;;;14.80;99.90;;;;;;5018786;28;20391;-63
2022/08/19 03:16:17;;;;;;;6.30;5.05;;;14.30;99.90;;;;;;5018517;28;20048;-63
2022/08/19 03:18:43;;;;;;;10.07;6.88;;;14.30;99.90;;;;;;5036198;28;20033;-63
2022/08/19 03:21:09;;;;;;;10.60;7.28;;;;;;;;;;5017735;28;20040;-64
2022/08/19 03:23:35;;;;;;;9.57;6.90;;;14.50;99.90;;;;;;5035891;28;20037;-63
2022/08/19 03:26:04;;;;;;;16.58;10.38;;;14.40;99.90;;;;;;5018353;28;20045;-63
2022/08/19 03:28:31;;;;;;;17.83;11.23;;;14.50;99.90;;;;;;5036128;28;20045;-63
2022/08/19 03:31:06;;;;;;;18.98;11.85;;;14.50;99.90;;;;;;5035778;28;20065;-63
2022/08/19 03:33:32;;;;;;;12.45;8.95;;;14.60;99.90;;;;;;5018374;28;20045;-63
2022/08/19 03:36:07;;;;;;;13.23;8.10;;;14.50;99.90;;;;;;5035523;28;20388;-64
2022/08/19 03:38:33;;;;;;;13.68;8.73;;;14.50;99.90;;;;;;5017977;28;20053;-63
2022/08/19 03:41:03;;;;;;;14.27;7.30;;;14.40;99.90;;;;;;5035576;28;20171;-63
2022/08/19 03:43:28;;;;;;;15.02;7.53;;;14.40;99.90;;;;;;5035794;28;20522;-63
2022/08/19 03:46:06;;;;;;;9.35;6.57;;;14.50;99.90;;;;;;5035484;28;20033;-63
2022/08/19 03:48:33;;;;;;;9.35;6.43;;;14.40;99.90;;;;;;5017456;28;20041;-63
2022/08/19 03:51:00;;;;;;;8.70;6.18;;;14.30;99.90;;;;;;5035290;28;20037;-63
2022/08/19 03:53:30;;;;;;;8.23;6.53;;;14.30;99.90;;;;;;5035351;28;20411;-63
2022/08/19 03:55:57;;;;;;;9.48;7.03;;;14.50;99.90;;;;;;5017709;28;20049;-63
2022/08/19 03:58:23;;;;;;;10.45;7.78;;;14.30;99.90;;;;;;5017500;28;20050;-64
2022/08/19 04:00:49;;;;;;;6.28;5.00;;;14.20;99.90;;;;;;5017402;28;20399;-63
2022/08/19 04:03:15;;;;;;;75.28;6.13;;;14.30;99.90;;;;;;5035045;28;20049;-63
2022/08/19 04:05:40;;;;;;;5.72;4.18;;;14.20;99.90;;;;;;5035187;28;20119;-63
2022/08/19 04:08:06;;;;;;;5.25;3.60;;;14.20;99.90;;;;;;5017623;28;20128;-63
2022/08/19 04:10:36;;;;;;;4.93;4.10;;;14.10;99.90;;;;;;5017403;28;20068;-63
2022/08/19 04:13:04;;;;;;;14.40;9.32;;;14.10;99.90;;;;;;5035148;28;20037;-63
2022/08/19 04:15:33;;;;;;;7.65;6.50;;;14.20;99.90;;;;;;5017064;28;20049;-63
2022/08/19 04:17:58;;;;;;;9.15;6.95;;;14.30;99.90;;;;;;5034983;28;20045;-63
2022/08/19 04:20:24;;;;;;;8.32;6.60;;;14.20;99.90;;;;;;5017095;28;20095;-63
2022/08/19 04:22:49;;;;;;;9.80;7.07;;;14.30;99.90;;;;;;5016600;28;20384;-63
2022/08/19 04:25:15;;;;;;;10.23;6.88;;;14.20;99.90;;;;;;5035024;28;20466;-63
2022/08/19 04:27:46;;;;;;;11.35;7.13;;;14.20;99.90;;;;;;5034570;28;20036;-63
2022/08/19 04:30:13;;;;;;;9.35;6.85;;;14.40;99.90;;;;;;5034890;28;20037;-63
2022/08/19 04:32:39;;;;;;;10.00;6.85;;;14.20;99.90;;;;;;5016871;28;20488;-63
2022/08/19 04:35:05;;;;;;;6.28;4.78;;;14.20;99.90;;;;;;5017116;28;20053;-62
2022/08/19 04:37:33;;;;;;;9.13;5.22;;;14.20;99.90;;;;;;5034846;28;20388;-63
2022/08/19 04:42:43;;;;;;;15.27;10.17;;;14.20;99.90;;;;;;5034264;28;20454;-63
2022/08/19 04:45:12;;;;;;;11.90;6.97;;;14.20;99.90;;;;;;5034317;28;20037;-63
2022/08/19 04:47:40;;;;;;;12.52;7.63;;;14.30;99.90;;;;;;5034582;28;20034;-63
2022/08/19 04:50:07;;;;;;;8.43;5.72;;;14.20;99.90;;;;;;5034600;28;20037;-63
2022/08/19 04:52:33;;;;;;;8.57;6.63;;;14.20;99.90;;;;;;5016640;28;20092;-63
2022/08/19 04:54:59;;;;;;;9.45;6.78;;;14.10;99.90;;;;;;5016460;28;20132;-64
2022/08/19 04:57:26;;;;;;;10.15;7.85;;;14.10;99.90;;;;;;5034028;28;20121;-63
2022/08/19 04:59:55;;;;;;;15.20;9.32;;;14.20;99.90;;;;;;5034442;28;20056;-63
2022/08/19 05:02:25;;;;;;;16.25;10.40;;;14.20;99.90;;;;;;5003129;28;20489;-63
2022/08/19 05:05:00;;;;;;;10.20;7.95;;;14.40;99.90;;;;;;5033998;28;20515;-63
2022/08/19 05:07:25;;;;;;;15.27;10.25;;;14.30;99.90;;;;;;5020670;28;20038;-63
2022/08/19 05:09:51;;;;;;;13.25;8.38;;;14.40;99.90;;;;;;5016159;28;20454;-63
2022/08/19 05:12:17;;;;;;;14.70;9.77;;;14.30;99.90;;;;;;5033972;28;20441;-63
2022/08/19 05:14:45;;;;;;;16.73;9.85;;;14.40;99.90;;;;;;5016318;28;20037;-63
2022/08/19 05:17:11;;;;;;;14.88;9.52;;;14.40;99.90;;;;;;5016120;28;20048;-63
2022/08/19 05:22:35;;;;;;;21.98;11.93;;;14.50;99.90;;;;;;5015771;28;20049;-63
2022/08/19 05:25:11;;;;;;;17.58;11.25;;;14.80;99.90;;;;;;5016162;28;20131;-62
2022/08/19 05:27:37;;;;;;;22.75;12.63;;;15.00;99.90;;;;;;5016253;28;20083;-62
2022/08/19 05:30:04;;;;;;;19.60;12.25;;;14.80;99.90;;;;;;5033522;28;20480;-62
2022/08/19 05:32:30;;;;;;;20.98;12.55;;;14.80;99.90;;;;;;5032887;28;20538;-64
2022/08/19 05:34:56;;;;;;;21.17;13.50;;;14.80;99.90;;;;;;5033248;28;20053;-63
2022/08/19 05:37:22;;;;;;;19.95;13.63;;;14.80;99.90;;;;;;5015471;28;20045;-63
2022/08/19 05:39:48;;;;;;;24.15;14.77;;;;;;;;;;5016092;28;20073;-62
2022/08/19 05:42:14;;;;;;;21.73;14.13;;;14.90;99.90;;;;;;5015957;28;20056;-63
2022/08/19 05:44:43;;;;;;;20.67;13.13;;;15.20;99.90;;;;;;5033162;28;20072;-63
2022/08/19 05:47:11;;;;;;;19.75;14.07;;;15.30;99.90;;;;;;5015637;28;20038;-63
2022/08/19 05:49:37;;;;;;;18.05;13.18;;;15.40;99.90;;;;;;5033150;28;20036;-63
2022/08/19 05:52:11;;;;;;;22.30;14.45;;;15.50;99.90;;;;;;5015282;28;20491;-63
2022/08/19 05:54:41;;;;;;;20.93;13.67;;;15.60;99.90;;;;;;5015588;28;20041;-63
2022/08/19 05:57:07;;;;;;;19.70;14.02;;;15.60;99.90;;;;;;5033253;28;20049;-63
2022/08/19 05:59:35;;;;;;;18.95;13.88;;;;;;;;;;5033293;28;20076;-64
2022/08/19 06:02:02;;;;;;;23.20;16.17;;;15.90;99.90;;;;;;5033025;28;20072;-64
2022/08/19 06:04:28;;;;;;;29.25;17.38;;;15.90;99.90;;;;;;5014846;28;20050;-63
2022/08/19 06:06:54;;;;;;;27.23;16.27;;;16.20;99.90;;;;;;5032890;28;20060;-63
2022/08/19 06:09:21;;;;;;;27.48;16.55;;;16.70;99.90;;;;;;5015333;28;20551;-63
2022/08/19 06:11:58;;;;;;;18.55;14.15;;;16.80;99.90;;;;;;5015048;28;20124;-63
2022/08/19 06:14:34;;;;;;;17.38;12.82;;;17.70;99.90;;;;;;5020280;28;20557;-63
2022/08/19 06:17:02;;;;;;;14.27;11.32;;;19.00;99.90;;;;;;5014823;28;20054;-63
2022/08/19 06:19:30;;;;;;;14.40;11.18;;;19.60;99.90;;;;;;5015445;28;20041;-63
2022/08/19 06:21:57;;;;;;;14.52;10.73;;;21.00;99.90;;;;;;5015115;28;20392;-63
2022/08/19 06:24:25;;;;;;;12.40;9.27;;;21.60;99.90;;;;;;5014835;28;20042;-64
2022/08/19 06:26:53;;;;;;;13.75;8.85;;;22.30;99.90;;;;;;5032461;28;20077;-64
2022/08/19 06:29:21;;;;;;;12.23;9.73;;;22.60;99.90;;;;;;5032517;28;20029;-63
2022/08/19 06:31:49;;;;;;;13.50;8.65;;;23.00;99.90;;;;;;5032587;28;20042;-63
2022/08/19 06:34:15;;;;;;;11.07;8.15;;;23.40;99.90;;;;;;5032788;28;20041;-64
2022/08/19 06:36:44;;;;;;;11.98;8.07;;;23.80;99.90;;;;;;5014804;28;20110;-64
2022/08/19 06:39:25;;;;;;;10.32;7.50;;;24.30;99.90;;;;;;5032390;28;20049;-64
2022/08/19 06:41:55;;;;;;;9.95;7.70;;;24.70;99.90;;;;;;5014952;28;20056;-64
2022/08/19 06:44:22;;;;;;;12.77;8.85;;;25.10;99.90;;;;;;5012818;28;20423;-64
2022/08/19 06:46:48;;;;;;;9.98;8.60;;;25.80;99.90;;;;;;5031596;28;20448;-64
2022/08/19 06:49:16;;;;;;;10.02;7.88;;;25.90;99.90;;;;;;5031980;28;20033;-64
2022/08/19 06:51:43;;;;;;;9.30;8.30;;;26.10;99.90;;;;;;5013792;28;20045;-64
2022/08/19 06:54:09;;;;;;;12.68;8.60;;;26.10;99.90;;;;;;5013884;28;20029;-64
2022/08/19 06:56:35;;;;;;;10.93;8.27;;;26.40;99.90;;;;;;5014354;28;20057;-64
2022/08/19 06:59:08;;;;;;;9.70;8.07;;;26.40;99.90;;;;;;5014603;28;20037;-64
2022/08/19 07:01:37;;;;;;;8.43;7.22;;;26.70;99.90;;;;;;5031274;28;20041;-64
2022/08/19 07:04:03;;;;;;;11.98;8.45;;;26.80;99.90;;;;;;5017658;28;20396;-64
2022/08/19 07:06:30;;;;;;;9.40;8.13;;;26.90;99.90;;;;;;5030362;28;20053;-64
2022/08/19 07:08:57;;;;;;;9.00;8.05;;;27.10;99.90;;;;;;4997976;28;20522;-64
2022/08/19 07:11:24;;;;;;;11.20;8.30;;;27.20;99.90;;;;;;5031965;28;20038;-64
2022/08/19 07:13:50;;;;;;;9.57;8.20;;;27.10;99.90;;;;;;5031886;28;20049;-64
2022/08/19 07:16:19;;;;;;;10.32;8.18;;;26.60;99.90;;;;;;5032206;28;20034;-64
2022/08/19 07:18:49;;;;;;;10.75;8.07;;;26.90;99.90;;;;;;5014364;28;20037;-64
2022/08/19 07:21:22;;;;;;;11.52;8.82;;;25.20;99.90;;;;;;5031686;28;20042;-64
2022/08/19 07:23:48;;;;;;;9.45;8.38;;;24.10;99.90;;;;;;5031988;28;20068;-65
2022/08/19 07:26:26;;;;;;;12.73;8.95;;;23.50;99.90;;;;;;5031862;28;20048;-64
2022/08/19 07:28:51;;;;;;;12.48;9.00;;;23.10;99.90;;;;;;5026683;28;20034;-64
2022/08/19 07:31:20;;;;;;;12.30;10.15;;;22.90;99.90;;;;;;5031723;28;20116;-64
2022/08/19 07:33:47;;;;;;;14.07;9.20;;;22.30;99.90;;;;;;5031758;28;20112;-64
2022/08/19 07:36:16;;;;;;;13.05;9.93;;;22.30;99.90;;;;;;5031726;28;20091;-64
2022/08/19 07:38:44;;;;;;;17.40;10.90;;;22.10;99.90;;;;;;5031060;28;20033;-63
2022/08/19 07:41:12;;;;;;;12.93;10.57;;;22.00;99.90;;;;;;5013779;28;20034;-64
2022/08/19 07:43:39;;;;;;;16.05;11.18;;;21.70;99.90;;;;;;5031524;28;20045;-65
2022/08/19 07:46:06;;;;;;;16.02;10.70;;;22.50;99.90;;;;;;5028156;28;20049;-64
2022/08/19 07:48:32;;;;;;;16.02;12.02;;;21.50;99.90;;;;;;5013821;28;20041;-64
2022/08/19 07:51:01;;;;;;;14.13;10.60;;;21.50;99.90;;;;;;5013240;28;20107;-64
2022/08/19 07:53:29;;;;;;;15.68;11.57;;;21.20;99.90;;;;;;5030982;28;20507;-64
2022/08/19 07:55:59;;;;;;;12.77;10.80;;;21.10;99.90;;;;;;4997188;28;20038;-64
2022/08/19 07:58:24;;;;;;;14.07;10.73;;;21.30;99.90;;;;;;5034915;28;20060;-64
2022/08/19 08:00:50;;;;;;;14.15;10.63;;;21.20;99.90;;;;;;5014375;28;20124;-64
2022/08/19 08:03:19;;;;;;;14.52;11.15;;;21.10;99.90;;;;;;5031979;28;20402;-64
2022/08/19 08:11:10;;;;;;;18.27;12.82;;;21.30;99.90;;;;;;5033978;28;20081;-64
2022/08/19 08:13:36;;;;;;;13.02;11.63;;;21.50;99.90;;;;;;5035044;28;20506;-64
2022/08/19 08:16:02;;;;;;;15.93;12.13;;;21.50;99.90;;;;;;5016937;28;20044;-64
2022/08/19 08:18:28;;;;;;;13.55;11.00;;;21.50;99.90;;;;;;5034529;28;20503;-63
2022/08/19 08:20:55;;;;;;;15.82;11.32;;;21.60;99.90;;;;;;5031684;28;20049;-64
2022/08/19 08:23:25;;;;;;;15.68;12.20;;;21.70;99.90;;;;;;5034680;28;20458;-64
2022/08/19 08:25:55;;;;;;;14.98;12.70;;;21.70;99.90;;;;;;5016886;28;20561;-64
2022/08/19 08:28:22;;;;;;;16.75;12.75;;;21.70;99.90;;;;;;5017032;28;20041;-64
2022/08/19 08:30:50;;;;;;;15.73;12.63;;;21.60;99.90;;;;;;5034506;28;20397;-64
2022/08/19 08:33:21;;;;;;;21.38;13.07;;;21.80;99.90;;;;;;5016934;28;20081;-64
2022/08/19 08:35:47;;;;;;;15.65;13.90;;;22.30;99.90;;;;;;5016727;28;20389;-64
2022/08/19 08:38:13;;;;;;;17.65;13.25;;;22.20;99.90;;;;;;5016694;28;20055;-64
2022/08/19 08:40:48;;;;;;;18.55;14.07;;;22.00;99.90;;;;;;5034462;28;20103;-64
2022/08/19 08:43:26;;;;;;;;;;;22.30;99.90;;;;;;5005643;28;20403;-64
2022/08/19 08:46:28;;;;;;;15.77;13.18;;;22.10;99.90;;;;;;5034509;28;20310;-64
2022/08/19 08:49:26;;;;;;;20.20;15.05;;;22.20;99.90;;;;;;5016701;28;20116;-64
2022/08/19 08:52:20;;;;;;;19.08;13.63;;;22.50;99.90;;;;;;4940959;28;20087;-64
2022/08/19 08:54:50;;;;;;;18.00;13.68;;;22.50;99.90;;;;;;5015974;28;20045;-64
2022/08/19 08:57:26;;;;;;;16.17;12.38;;;22.50;99.90;;;;;;5015895;28;20053;-64
2022/08/19 08:59:54;;;;;;;15.38;12.30;;;22.60;99.90;;;;;;5033807;28;20499;-64
2022/08/19 09:02:20;;;;;;;15.45;13.05;;;22.70;99.90;;;;;;5031565;28;20045;-64
2022/08/19 09:04:46;;;;;;;19.20;13.23;;;22.70;99.90;;;;;;5015889;28;20104;-64
2022/08/19 09:07:30;;;;;;;16.08;13.25;;;22.80;99.90;;;;;;5033544;28;20044;-64
2022/08/19 09:10:28;;;;;;;19.57;15.03;;;22.90;99.90;;;;;;5015405;28;20124;-64
2022/08/19 09:13:22;;;;;;;17.60;13.38;;;23.00;99.90;;;;;;5032953;28;20272;-64
2022/08/19 09:16:27;;;;;;;18.42;13.63;;;23.00;99.90;;;;;;5033518;28;20029;-64
2022/08/19 09:18:57;;;;;;;18.55;14.60;;;23.40;99.90;;;;;;4952797;29;20576;-64
2022/08/19 09:21:25;;;;;;;18.48;14.15;;;23.20;99.90;;;;;;4936982;29;20050;-64
2022/08/19 09:23:51;;;;;;;19.00;14.93;;;23.80;99.90;;;;;;4992000;28;20064;-64
2022/08/19 09:26:21;;;;;;;17.38;14.75;;;23.30;99.90;;;;;;5015325;28;20038;-64
2022/08/19 09:28:49;;;;;;;17.33;14.57;;;23.60;99.90;;;;;;5033415;28;20086;-64
2022/08/19 09:31:18;;;;;;;16.98;13.93;;;23.70;99.90;;;;;;5014973;28;20037;-64
2022/08/19 09:33:44;;;;;;;20.33;15.45;;;23.80;99.90;;;;;;5032994;28;20120;-64
2022/08/19 09:36:13;;;;;;;20.23;16.30;;;23.80;99.90;;;;;;5033187;28;20045;-64
2022/08/19 09:38:41;;;;;;;20.08;17.25;;;24.00;99.90;;;;;;5032977;28;20065;-64
2022/08/19 09:41:10;;;;;;;20.25;16.88;;;23.90;99.90;;;;;;5032810;28;20446;-64
2022/08/19 09:43:36;;;;;;;22.50;17.10;;;24.20;99.90;;;;;;5028156;28;20041;-64
2022/08/19 09:46:05;;;;;;;23.60;18.17;;;24.60;99.90;;;;;;5014241;28;20044;-64
2022/08/19 09:48:31;;;;;;;21.02;17.40;;;23.90;99.90;;;;;;5018998;28;20084;-65
2022/08/19 09:51:07;;;;;;;20.45;16.85;;;24.30;99.90;;;;;;5010454;28;20041;-64
2022/08/19 09:53:34;;;;;;;19.52;16.52;;;24.40;99.90;;;;;;5007151;28;20323;-65
2022/08/19 09:56:00;;;;;;;23.10;17.70;;;24.30;99.90;;;;;;5030100;28;20495;-65
2022/08/19 09:58:27;;;;;;;19.27;16.23;;;25.80;99.90;;;;;;5029093;28;20043;-65
2022/08/19 10:00:55;;;;;;;20.92;18.00;;;24.40;99.90;;;;;;5031392;28;20147;-65
2022/08/19 10:03:20;;;;;;;25.75;16.90;;;24.50;99.90;;;;;;5032230;28;20057;-65
2022/08/19 10:05:50;;;;;;;19.75;15.23;;;24.60;99.90;;;;;;5015375;28;20392;-65
2022/08/19 10:08:17;;;;;;;19.13;15.85;;;24.70;99.90;;;;;;5022906;28;20100;-65
2022/08/19 10:10:44;;;;;;;19.20;13.98;;;24.60;99.90;;;;;;5014382;28;20044;-65
2022/08/19 10:13:10;;;;;;;18.35;15.82;;;24.70;99.90;;;;;;5015268;28;20399;-65
2022/08/19 10:15:38;;;;;;;20.27;15.95;;;24.90;99.90;;;;;;5031375;28;20041;-65
2022/08/19 10:18:05;;;;;;;17.67;14.55;;;24.80;99.90;;;;;;5032220;28;20050;-65
2022/08/19 10:20:31;;;;;;;18.83;16.20;;;24.90;99.90;;;;;;5010215;28;20124;-66
2022/08/19 10:22:59;;;;;;;17.90;13.13;;;24.90;99.90;;;;;;5014896;28;20072;-67
2022/08/19 10:25:26;;;;;;;19.45;15.07;;;26.20;99.90;;;;;;5032782;28;20095;-66
2022/08/19 10:27:52;;;;;;;20.65;13.52;;;24.90;99.90;;;;;;5032307;28;20055;-68
2022/08/19 10:30:18;;;;;;;17.27;12.70;;;24.80;99.90;;;;;;5023117;28;20041;-66
2022/08/19 10:32:45;;;;;;;18.25;13.05;;;24.80;99.90;;;;;;5012281;28;20056;-66
2022/08/19 10:35:12;;;;;;;14.65;11.05;;;24.90;99.90;;;;;;5013785;28;20095;-66
2022/08/19 10:37:38;;;;;;;14.75;10.95;;;24.70;99.90;;;;;;5010295;28;20385;-66
2022/08/19 10:40:10;;;;;;;15.90;11.02;;;25.00;99.90;;;;;;5028002;28;20521;-66
2022/08/19 10:42:36;;;;;;;11.75;9.48;;;24.90;99.90;;;;;;5014492;28;20052;-66
2022/08/19 10:45:02;;;;;;;12.13;9.70;;;24.90;99.90;;;;;;5014231;28;20037;-66
2022/08/19 10:47:28;;;;;;;15.25;9.65;;;24.90;99.90;;;;;;5031994;28;20496;-66
2022/08/19 10:52:44;;;;;;;11.80;8.85;;;27.20;99.90;;;;;;5008893;28;20049;-66
2022/08/19 10:57:54;;;;;;;10.35;6.65;;;26.10;99.90;;;;;;5032335;28;20045;-66
2022/08/19 11:00:21;;;;;;;11.27;8.95;;;25.10;99.90;;;;;;5014102;28;20045;-66
2022/08/19 11:02:47;;;;;;;14.63;7.20;;;25.00;99.90;;;;;;5032241;28;20040;-66
2022/08/19 11:05:14;;;;;;;14.10;7.93;;;26.30;99.90;;;;;;5031914;28;20496;-66
2022/08/19 11:07:40;;;;;;;10.40;6.03;;;24.90;99.90;;;;;;5032109;28;20042;-67
2022/08/19 11:10:08;;;;;;;12.60;6.40;;;26.30;99.90;;;;;;5014608;28;20042;-66
2022/08/19 11:12:33;;;;;;;9.82;6.10;;;24.90;99.90;;;;;;5031979;28;20037;-66
2022/08/19 11:14:59;;;;;;;11.75;7.00;;;25.00;99.90;;;;;;5014649;28;20395;-66
2022/08/19 11:17:25;;;;;;;14.32;9.75;;;24.80;99.90;;;;;;5032177;28;20049;-66
2022/08/19 11:19:50;;;;;;;14.80;9.93;;;25.70;99.90;;;;;;5014373;28;20434;-66
2022/08/19 11:22:16;;;;;;;15.70;10.95;;;26.30;99.90;;;;;;5009755;28;20037;-68
2022/08/19 11:24:42;;;;;;;13.02;8.80;;;26.50;99.90;;;;;;5027596;28;20041;-66
2022/08/19 11:27:09;;;;;;;14.15;8.95;;;24.80;99.90;;;;;;5013912;28;20112;-67
2022/08/19 11:29:37;;;;;;;13.30;9.43;;;24.50;99.90;;;;;;5029803;28;20506;-68
2022/08/19 11:32:06;;;;;;;12.35;8.98;;;25.10;99.90;;;;;;5015797;28;20033;-67
2022/08/19 11:34:32;;;;;;;16.65;13.27;;;25.00;99.90;;;;;;5017671;28;20128;-68
2022/08/19 11:36:59;;;;;;;18.25;13.07;;;25.20;99.90;;;;;;5035203;28;20120;-68
2022/08/19 11:39:26;;;;;;;10.98;8.38;;;25.30;99.90;;;;;;5017829;28;20053;-68
2022/08/19 11:41:52;;;;;;;11.35;7.78;;;25.10;99.90;;;;;;5009676;28;20149;-67
2022/08/19 11:44:17;;;;;;;12.38;9.43;;;26.40;99.90;;;;;;5035523;28;20482;-68
2022/08/19 11:46:46;;;;;;;12.68;9.82;;;25.10;99.90;;;;;;5035279;28;20029;-67
2022/08/19 11:49:13;;;;;;;12.55;9.65;;;27.00;99.90;;;;;;5031305;28;20037;-67
2022/08/19 11:51:41;;;;;;;12.93;9.27;;;24.90;99.90;;;;;;5001366;28;20042;-68
2022/08/19 11:54:07;;;;;;;15.35;11.85;;;25.00;99.90;;;;;;5017605;28;20042;-68
2022/08/19 11:56:33;;;;;;;16.20;11.38;;;24.90;99.90;;;;;;4998628;28;20435;-67
2022/08/19 11:59:01;;;;;;;16.90;12.13;;;26.30;99.90;;;;;;5016354;28;20041;-68
2022/08/19 12:01:27;;;;;;;21.35;14.80;;;25.10;99.90;;;;;;5016492;28;20056;-67
2022/08/19 12:03:55;;;;;;;15.65;12.10;;;26.20;99.90;;;;;;5016717;28;20049;-67
2022/08/19 12:06:28;;;;;;;15.98;12.20;;;25.50;99.90;;;;;;5034778;28;20058;-67
2022/08/19 12:08:57;;;;;;;12.18;9.20;;;26.20;99.90;;;;;;5035275;28;20037;-68
2022/08/19 12:11:23;;;;;;;17.75;8.32;;;27.40;99.90;;;;;;5017135;28;20033;-67
2022/08/19 12:13:49;;;;;;;12.88;8.80;;;25.20;99.90;;;;;;5035107;28;20083;-67
2022/08/19 12:16:18;;;;;;;15.55;12.13;;;25.30;99.90;;;;;;5017155;28;20049;-67
2022/08/19 12:18:46;;;;;;;15.43;12.70;;;25.30;99.90;;;;;;5035155;28;20043;-67
2022/08/19 12:21:13;;;;;;;17.08;11.00;;;25.60;99.90;;;;;;5034566;28;20558;-67
2022/08/19 12:23:40;;;;;;;12.15;8.48;;;25.30;99.90;;;;;;5017124;28;20037;-67
2022/08/19 12:26:06;;;;;;;13.82;12.27;;;25.70;99.90;;;;;;5035086;28;20087;-68
2022/08/19 12:28:32;;;;;;;19.92;14.93;;;25.70;99.90;;;;;;5017406;28;20049;-68
2022/08/19 12:30:58;;;;;;;19.48;13.77;;;25.90;99.90;;;;;;5016868;28;20116;-68
2022/08/19 12:33:27;;;;;;;20.73;14.27;;;25.30;99.90;;;;;;5016627;28;20044;-68
2022/08/19 12:35:52;;;;;;;19.48;14.60;;;25.20;99.90;;;;;;5034743;28;20049;-68
2022/08/19 12:38:18;;;;;;;18.02;12.75;;;26.50;99.90;;;;;;5034451;28;20387;-68
2022/08/19 12:40:48;;;;;;;16.30;12.13;;;26.10;99.90;;;;;;5015936;28;20045;-68
2022/08/19 12:43:15;;;;;;;21.02;12.07;;;26.10;99.90;;;;;;5034176;28;20033;-67
2022/08/19 12:45:42;;;;;;;18.35;13.00;;;25.30;99.90;;;;;;5015826;28;20053;-68
2022/08/19 12:48:08;;;;;;;14.77;10.63;;;25.40;99.90;;;;;;5016033;28;20038;-68
2022/08/19 12:50:33;;;;;;;18.20;14.38;;;25.90;99.90;;;;;;5034058;28;20033;-68
2022/08/19 12:52:59;;;;;;;21.35;13.95;;;26.90;99.90;;;;;;5033977;28;20033;-67
2022/08/19 12:55:24;;;;;;;18.60;11.10;;;25.70;99.90;;;;;;5016354;28;20369;-67
2022/08/19 12:57:50;;;;;;;21.90;14.32;;;25.70;99.90;;;;;;5034131;28;20091;-67